createdAt,value
2023-04-12T00:09:36.483Z,11.75
2023-04-12T00:19:41.740Z,11.68
2023-04-12T00:29:44.833Z,11.43
2023-04-12T00:39:49.263Z,11.32
2023-04-12T00:49:52.423Z,11.27
2023-04-12T00:59:56.839Z,11.15
2023-04-12T01:10:09.087Z,11.17
2023-04-12T01:20:17.271Z,11.00
2023-04-12T01:30:22.490Z,11.04
2023-04-12T01:40:28.687Z,10.68
2023-04-12T01:50:39.905Z,10.85
2023-04-12T02:00:45.562Z,10.83
2023-04-12T02:10:49.962Z,10.94
2023-04-12T02:20:53.030Z,10.71
2023-04-12T02:31:17.198Z,10.62
2023-04-12T02:41:24.838Z,10.55
2023-04-12T02:51:29.186Z,10.50
2023-04-12T03:01:33.815Z,10.41
2023-04-12T03:11:54.632Z,10.27
2023-04-12T03:21:59.358Z,10.26
2023-04-12T03:32:03.911Z,10.05
2023-04-12T03:42:18.579Z,9.96
2023-04-12T03:52:31.386Z,9.74
2023-04-12T04:02:35.804Z,9.90
2023-04-12T04:12:41.269Z,9.85
2023-04-12T04:22:49.362Z,9.69
2023-04-12T04:32:55.397Z,9.60
2023-04-12T04:43:01.537Z,9.38
2023-04-12T04:53:11.512Z,9.32
2023-04-12T05:03:14.811Z,9.37
2023-04-12T05:13:19.446Z,9.21
2023-04-12T05:23:22.985Z,9.06
2023-04-12T05:33:30.619Z,9.03
2023-04-12T05:43:37.820Z,9.02
2023-04-12T05:53:44.672Z,8.90
2023-04-12T06:03:49.727Z,8.90
2023-04-12T06:13:55.285Z,8.91
2023-04-12T06:23:59.253Z,8.87
2023-04-12T06:34:06.419Z,8.87
2023-04-12T06:44:10.347Z,9.07
2023-04-12T06:54:15.571Z,9.03
2023-04-12T07:04:19.406Z,9.00
2023-04-12T07:14:24.380Z,9.07
2023-04-12T07:34:49.178Z,9.20
2023-04-12T07:44:52.340Z,9.26
2023-04-12T07:54:56.824Z,9.31
2023-04-12T08:05:00.044Z,9.40
2023-04-12T08:15:04.644Z,9.41
2023-04-12T08:25:09.668Z,9.58
2023-04-12T08:35:15.855Z,9.67
2023-04-12T08:45:22.351Z,9.92
2023-04-12T08:55:27.076Z,9.94
2023-04-12T09:05:31.319Z,10.25
2023-04-12T09:15:37.353Z,10.59
2023-04-12T09:25:45.755Z,10.53
2023-04-12T09:35:50.338Z,10.70
2023-04-12T09:45:53.453Z,10.77
2023-04-12T09:56:00.146Z,10.83
2023-04-12T10:06:05.193Z,10.81
2023-04-12T10:16:11.158Z,11.05
2023-04-12T10:26:17.560Z,11.59
2023-04-12T10:36:52.605Z,11.62
2023-04-12T10:46:56.052Z,12.02
2023-04-12T10:57:03.928Z,11.88
2023-04-12T11:07:20.432Z,10.82
2023-04-12T11:17:39.096Z,10.46
2023-04-12T11:27:50.906Z,10.68
2023-04-12T11:37:57.263Z,11.31
2023-04-12T11:48:01.621Z,11.14
2023-04-12T11:58:06.507Z,11.23
2023-04-12T12:08:11.075Z,11.58
2023-04-12T12:18:15.640Z,11.99
2023-04-12T12:28:18.991Z,12.72
2023-04-12T12:38:31.954Z,13.18
2023-04-12T12:59:12.586Z,12.92
2023-04-12T13:09:15.368Z,12.47
2023-04-12T13:19:20.345Z,12.29
2023-04-12T13:29:23.475Z,12.44
2023-04-12T13:39:28.353Z,12.65
2023-04-12T13:49:31.872Z,13.09
2023-04-12T13:59:36.296Z,13.79
2023-04-12T14:09:39.220Z,13.03
2023-04-12T14:19:43.375Z,13.50
2023-04-12T14:29:46.639Z,14.09
2023-04-12T14:39:51.548Z,13.43
2023-04-12T14:49:56.362Z,13.65
2023-04-12T15:00:02.779Z,13.08
2023-04-12T15:10:07.352Z,12.88
2023-04-12T15:20:13.461Z,12.15
2023-04-12T15:30:17.986Z,11.76
2023-04-12T15:40:22.993Z,11.80
2023-04-12T15:50:26.535Z,11.36
2023-04-12T16:00:31.207Z,11.26
2023-04-12T16:10:35.117Z,11.13
2023-04-12T16:20:40.597Z,10.92
2023-04-12T16:30:43.579Z,9.74
2023-04-12T16:40:48.588Z,9.34
2023-04-12T16:50:52.247Z,9.21
2023-04-12T17:00:57.753Z,9.56
2023-04-12T17:11:01.453Z,9.85
2023-04-12T17:21:08.623Z,9.88
2023-04-12T17:31:14.487Z,9.96
2023-04-12T17:41:19.190Z,9.87
2023-04-12T17:51:25.218Z,10.06
2023-04-12T18:01:31.712Z,9.99
2023-04-12T18:22:01.440Z,9.56
2023-04-12T18:32:06.200Z,9.53
2023-04-12T18:42:10.761Z,9.30
2023-04-12T18:52:13.572Z,9.16
2023-04-12T19:02:18.241Z,9.11
2023-04-12T19:12:21.868Z,8.99
2023-04-12T19:22:28.034Z,8.92
2023-04-12T19:32:31.516Z,8.93
2023-04-12T19:42:35.838Z,9.46
2023-04-12T19:52:39.250Z,8.88
2023-04-12T20:02:43.836Z,8.69
2023-04-12T20:12:47.062Z,8.60
2023-04-12T20:22:52.912Z,8.62
2023-04-12T20:32:56.116Z,8.60
2023-04-12T20:43:01.535Z,8.57
2023-04-12T20:53:04.694Z,8.39
2023-04-12T21:03:09.162Z,8.36
2023-04-12T21:13:12.985Z,8.37
2023-04-12T21:23:18.420Z,8.14
2023-04-12T21:33:25.836Z,7.85
2023-04-12T21:43:31.786Z,8.05
2023-04-12T21:53:35.294Z,8.03
2023-04-12T22:03:40.232Z,8.15
2023-04-12T22:13:46.201Z,8.00
2023-04-12T22:23:50.724Z,7.97
2023-04-12T22:33:55.104Z,7.76
2023-04-12T22:44:02.429Z,7.66
2023-04-12T22:54:08.718Z,7.78
2023-04-12T23:04:13.842Z,7.71
2023-04-12T23:14:17.973Z,7.70
2023-04-12T23:24:22.410Z,7.73
2023-04-12T23:34:26.633Z,7.80
2023-04-12T23:44:31.640Z,7.79
2023-04-12T23:54:35.632Z,7.86
